createdAt,value
2023-04-18T00:00:16.408Z,82.0258
2023-04-18T00:01:18.055Z,82.0742
2023-04-18T00:02:19.875Z,82.1435
2023-04-18T00:03:21.561Z,82.2781
2023-04-18T00:04:23.266Z,82.2635
2023-04-18T00:05:24.812Z,82.0914
2023-04-18T00:06:26.292Z,82.0726
2023-04-18T00:07:27.932Z,82.0275
2023-04-18T00:08:29.625Z,81.9206
2023-04-18T00:09:31.262Z,81.7130
2023-04-18T00:10:32.939Z,81.5221
2023-04-18T00:11:34.542Z,81.5388
2023-04-18T00:12:36.184Z,81.6463
2023-04-18T00:13:37.836Z,81.8158
2023-04-18T00:14:39.454Z,81.8624
2023-04-18T00:15:41.094Z,81.6252
2023-04-18T00:16:42.752Z,81.5494
2023-04-18T00:17:44.445Z,81.4625
2023-04-18T00:18:46.157Z,81.0383
2023-04-18T00:19:47.737Z,81.1188
2023-04-18T00:20:49.452Z,81.0335
2023-04-18T00:21:51.015Z,80.7320
2023-04-18T00:22:52.689Z,81.0133
2023-04-18T00:23:54.391Z,81.0393
2023-04-18T00:24:56.014Z,80.8196
2023-04-18T00:25:57.643Z,80.8794
2023-04-18T00:26:59.250Z,80.8201
2023-04-18T00:28:00.975Z,81.1807
2023-04-18T00:29:02.618Z,81.2801
2023-04-18T00:30:04.210Z,80.9991
2023-04-18T00:31:05.830Z,81.1371
2023-04-18T00:32:07.413Z,81.1850
2023-04-18T00:33:09.044Z,81.2637
2023-04-18T00:34:10.728Z,81.4327
2023-04-18T00:35:12.401Z,81.3465
2023-04-18T00:36:14.004Z,80.9759
2023-04-18T00:37:15.624Z,81.0497
2023-04-18T00:38:17.294Z,81.4739
2023-04-18T00:39:18.945Z,81.4559
2023-04-18T00:40:20.578Z,81.3835
2023-04-18T00:41:22.234Z,81.3102
2023-04-18T00:42:23.870Z,81.2186
2023-04-18T00:43:25.514Z,81.2820
2023-04-18T00:44:27.171Z,80.8559
2023-04-18T00:45:28.794Z,80.9347
2023-04-18T00:46:30.553Z,81.0313
2023-04-18T00:47:32.120Z,81.0989
2023-04-18T00:48:33.732Z,80.9686
2023-04-18T00:49:35.421Z,80.9778
2023-04-18T00:50:37.021Z,81.2423
2023-04-18T00:51:38.675Z,81.2092
2023-04-18T00:52:40.315Z,80.9748
2023-04-18T00:53:42.005Z,81.0305
2023-04-18T00:54:43.638Z,80.8920
2023-04-18T00:55:45.244Z,80.7100
2023-04-18T00:56:46.905Z,80.9754
2023-04-18T00:57:48.513Z,81.1871
2023-04-18T00:58:50.157Z,80.8472
2023-04-18T00:59:51.832Z,80.7074
2023-04-18T01:00:53.454Z,80.6817
2023-04-18T01:01:55.232Z,80.7675
2023-04-18T01:02:56.860Z,80.8849
2023-04-18T01:03:58.527Z,81.1440
2023-04-18T01:05:00.060Z,80.9263
2023-04-18T01:06:02.666Z,80.8723
2023-04-18T01:07:03.373Z,81.0509
2023-04-18T01:08:05.062Z,81.0686
2023-04-18T01:09:06.589Z,81.0065
2023-04-18T01:10:08.276Z,80.7357
2023-04-18T01:11:09.881Z,80.3775
2023-04-18T01:12:11.521Z,80.6980
2023-04-18T01:13:13.160Z,80.7374
2023-04-18T01:14:15.093Z,80.7860
2023-04-18T01:15:16.455Z,80.5066
2023-04-18T01:16:18.105Z,80.3869
2023-04-18T01:17:19.757Z,80.2433
2023-04-18T01:18:21.385Z,80.3119
2023-04-18T01:19:23.025Z,80.1293
2023-04-18T01:20:24.689Z,80.2902
2023-04-18T01:21:26.286Z,80.7388
2023-04-18T01:22:27.931Z,80.6889
2023-04-18T01:23:29.588Z,80.9772
2023-04-18T01:24:31.242Z,81.0165
2023-04-18T01:25:32.890Z,81.1224
2023-04-18T01:26:34.482Z,81.0106
2023-04-18T01:27:36.142Z,80.6405
2023-04-18T01:28:37.809Z,80.6441
2023-04-18T01:29:39.457Z,80.7514
2023-04-18T01:30:41.060Z,81.0936
2023-04-18T01:31:42.899Z,81.1875
2023-04-18T01:32:44.489Z,80.9923
2023-04-18T01:33:46.118Z,80.8900
2023-04-18T01:34:47.773Z,80.9112
2023-04-18T01:35:49.385Z,80.9652
2023-04-18T01:36:51.035Z,80.7877
2023-04-18T01:37:52.665Z,80.5889
2023-04-18T01:38:54.301Z,80.9185
2023-04-18T01:39:55.989Z,81.0755
2023-04-18T01:40:57.581Z,81.3480
2023-04-18T01:41:59.222Z,81.1383
2023-04-18T01:43:00.890Z,80.8978
2023-04-18T01:44:02.538Z,81.0948
2023-04-18T01:45:04.208Z,80.6694
2023-04-18T01:46:05.848Z,80.9160
2023-04-18T01:47:07.466Z,81.2798
2023-04-18T01:48:09.139Z,81.0438
2023-04-18T01:49:10.775Z,80.9727
2023-04-18T01:50:12.480Z,81.3220
2023-04-18T01:51:14.023Z,81.5676
2023-04-18T01:52:15.900Z,81.6295
2023-04-18T01:53:17.337Z,81.6217
2023-04-18T01:54:18.999Z,81.7877
2023-04-18T01:55:20.684Z,81.7757
2023-04-18T01:56:22.265Z,81.9752
2023-04-18T01:57:23.920Z,81.7911
2023-04-18T01:58:25.576Z,82.0628
2023-04-18T01:59:27.238Z,81.9952
2023-04-18T02:00:28.920Z,81.8062
2023-04-18T02:01:30.513Z,81.8443
2023-04-18T02:02:32.380Z,81.8272
2023-04-18T02:03:34.074Z,81.5381
2023-04-18T02:04:35.560Z,81.0645
2023-04-18T02:05:37.242Z,81.6106
2023-04-18T02:06:38.810Z,82.0441
2023-04-18T02:07:40.492Z,82.1178
2023-04-18T02:08:42.119Z,82.2168
2023-04-18T02:09:43.813Z,82.2069
2023-04-18T02:10:45.434Z,82.2784
2023-04-18T02:11:47.106Z,82.2839
2023-04-18T02:12:48.697Z,82.1194
2023-04-18T02:13:50.335Z,82.0444
2023-04-18T02:14:51.970Z,82.1367
2023-04-18T02:15:53.634Z,82.2939
2023-04-18T02:16:55.362Z,81.9857
2023-04-18T02:17:56.947Z,81.9711
2023-04-18T02:18:58.615Z,82.1596
2023-04-18T02:20:00.193Z,82.1542
2023-04-18T02:21:01.877Z,82.4723
2023-04-18T02:22:03.451Z,82.3876
2023-04-18T02:23:05.109Z,82.3188
2023-04-18T02:24:06.738Z,82.4869
2023-04-18T02:25:08.384Z,82.4723
2023-04-18T02:26:10.107Z,82.0147
2023-04-18T02:27:11.716Z,82.0158
2023-04-18T02:28:13.291Z,82.1755
2023-04-18T02:29:14.942Z,82.1432
2023-04-18T02:30:16.692Z,82.3278
2023-04-18T02:31:18.317Z,82.4842
2023-04-18T02:32:19.912Z,82.4221
2023-04-18T02:33:21.539Z,82.2840
2023-04-18T02:34:23.256Z,82.2556
2023-04-18T02:35:24.845Z,82.2791
2023-04-18T02:36:26.514Z,82.3103
2023-04-18T02:37:28.112Z,82.1967
2023-04-18T02:38:29.828Z,82.1251
2023-04-18T02:39:31.416Z,82.2477
2023-04-18T02:40:33.030Z,82.0529
2023-04-18T02:41:34.767Z,82.0094
2023-04-18T02:42:36.346Z,82.0479
2023-04-18T02:43:38.054Z,82.3099
2023-04-18T02:44:39.616Z,82.5027
2023-04-18T02:45:41.431Z,82.5537
2023-04-18T02:46:42.879Z,82.3833
2023-04-18T02:47:54.785Z,81.9337
2023-04-18T02:48:46.118Z,82.2036
2023-04-18T02:49:47.764Z,82.1570
2023-04-18T02:50:49.396Z,82.2338
2023-04-18T02:51:51.071Z,82.3504
2023-04-18T02:52:52.650Z,82.1034
2023-04-18T02:53:54.295Z,81.8240
2023-04-18T02:54:55.983Z,82.0570
2023-04-18T02:55:57.592Z,82.0741
2023-04-18T02:56:59.269Z,82.0840
2023-04-18T02:58:00.884Z,82.0838
2023-04-18T02:59:02.506Z,82.2981
2023-04-18T03:00:04.182Z,82.4140
2023-04-18T03:01:05.875Z,82.6339
2023-04-18T03:02:07.440Z,82.6896
2023-04-18T03:03:09.140Z,82.7609
2023-04-18T03:04:10.748Z,82.7354
2023-04-18T03:05:12.495Z,82.7579
2023-04-18T03:06:14.084Z,82.4397
2023-04-18T03:07:15.687Z,82.0383
2023-04-18T03:08:17.335Z,82.1230
2023-04-18T03:09:18.971Z,82.4059
2023-04-18T03:10:20.590Z,82.6092
2023-04-18T03:11:22.291Z,82.6780
2023-04-18T03:12:23.948Z,82.5852
2023-04-18T03:13:25.551Z,82.6773
2023-04-18T03:14:27.235Z,82.7449
2023-04-18T03:15:28.874Z,82.7009
2023-04-18T03:16:30.571Z,82.7219
2023-04-18T03:17:32.194Z,82.7443
2023-04-18T03:18:33.969Z,82.4830
2023-04-18T03:19:35.435Z,82.7849
2023-04-18T03:20:37.104Z,82.8209
2023-04-18T03:21:38.762Z,82.7320
2023-04-18T03:22:40.353Z,82.8282
2023-04-18T03:23:42.019Z,82.6104
2023-04-18T03:24:43.635Z,82.8309
2023-04-18T03:25:45.299Z,82.6734
2023-04-18T03:26:46.954Z,82.8193
2023-04-18T03:27:48.580Z,82.9416
2023-04-18T03:28:50.219Z,82.8546
2023-04-18T03:29:51.844Z,83.0220
2023-04-18T03:30:53.596Z,82.9293
2023-04-18T03:31:55.163Z,82.7172
2023-04-18T03:32:57.015Z,82.3614
2023-04-18T03:33:58.433Z,82.5114
2023-04-18T03:35:00.055Z,82.6412
2023-04-18T03:36:01.695Z,82.6957
2023-04-18T03:37:03.392Z,82.3502
2023-04-18T03:38:04.975Z,82.0175
2023-04-18T03:39:06.616Z,82.1019
2023-04-18T03:40:08.234Z,82.0302
2023-04-18T03:41:09.895Z,82.4020
2023-04-18T03:42:11.590Z,82.3857
2023-04-18T03:43:13.178Z,82.5682
2023-04-18T03:44:15.068Z,82.3227
2023-04-18T03:45:16.458Z,82.4647
2023-04-18T03:46:18.124Z,82.1799
2023-04-18T03:47:20.078Z,82.1642
2023-04-18T03:48:21.422Z,82.1973
2023-04-18T03:49:23.052Z,81.8652
2023-04-18T03:50:24.683Z,81.9722
2023-04-18T03:51:26.330Z,82.1397
2023-04-18T03:52:29.700Z,82.1123
2023-04-18T03:53:29.655Z,82.2335
2023-04-18T03:54:31.280Z,82.0377
2023-04-18T03:55:32.904Z,82.1434
2023-04-18T03:56:34.539Z,82.2309
2023-04-18T03:57:36.196Z,82.2977
2023-04-18T03:58:37.855Z,82.1450
2023-04-18T03:59:39.481Z,82.1226
2023-04-18T04:00:41.140Z,82.1812
2023-04-18T04:01:42.950Z,82.1064
2023-04-18T04:02:44.582Z,81.8666
2023-04-18T04:03:46.238Z,81.7391
2023-04-18T04:04:48.012Z,81.9352
2023-04-18T04:05:49.343Z,82.0102
2023-04-18T04:06:50.979Z,82.0184
2023-04-18T04:07:52.622Z,81.9210
2023-04-18T04:08:54.318Z,81.9404
2023-04-18T04:09:55.947Z,82.1881
2023-04-18T04:10:57.578Z,82.1030
2023-04-18T04:11:59.239Z,82.3215
2023-04-18T04:13:00.821Z,82.4393
2023-04-18T04:14:02.521Z,82.2489
2023-04-18T04:15:04.140Z,81.9203
2023-04-18T04:16:05.863Z,81.8259
2023-04-18T04:17:07.407Z,81.9656
2023-04-18T04:18:09.144Z,82.2291
2023-04-18T04:19:10.740Z,82.4022
2023-04-18T04:20:12.367Z,82.4902
2023-04-18T04:21:14.031Z,82.5233
2023-04-18T04:22:15.671Z,82.4907
2023-04-18T04:23:17.314Z,82.4628
2023-04-18T04:24:18.985Z,82.4367
2023-04-18T04:25:20.582Z,82.3629
2023-04-18T04:26:22.263Z,82.3160
2023-04-18T04:27:23.843Z,82.2678
2023-04-18T04:28:25.622Z,82.0520
2023-04-18T04:29:27.176Z,82.3116
2023-04-18T04:30:28.800Z,82.4227
2023-04-18T04:31:30.509Z,82.2400
2023-04-18T04:32:32.133Z,81.8999
2023-04-18T04:33:33.773Z,82.2588
2023-04-18T04:34:35.434Z,82.2466
2023-04-18T04:35:37.027Z,81.9249
2023-04-18T04:36:38.675Z,81.7022
2023-04-18T04:37:40.297Z,81.7677
2023-04-18T04:38:41.954Z,81.9002
2023-04-18T04:39:43.658Z,81.8541
2023-04-18T04:40:45.236Z,81.5464
2023-04-18T04:41:46.883Z,81.2191
2023-04-18T04:42:48.543Z,81.1690
2023-04-18T04:43:50.197Z,81.3200
2023-04-18T04:44:51.901Z,81.3757
2023-04-18T04:45:53.536Z,81.5632
2023-04-18T04:46:55.137Z,81.8192
2023-04-18T04:47:56.747Z,81.7480
2023-04-18T04:48:58.493Z,81.9801
2023-04-18T04:50:00.025Z,81.8905
2023-04-18T04:51:01.699Z,81.8654
2023-04-18T04:52:03.375Z,82.0962
2023-04-18T04:53:04.980Z,81.8456
2023-04-18T04:54:06.592Z,81.6072
2023-04-18T04:55:08.283Z,81.6422
2023-04-18T04:56:09.918Z,81.5976
2023-04-18T04:57:11.561Z,81.6614
2023-04-18T04:58:13.202Z,81.6898
2023-04-18T04:59:14.872Z,81.9351
2023-04-18T05:00:16.490Z,82.1011
2023-04-18T05:01:18.166Z,81.8887
2023-04-18T05:02:19.831Z,81.8213
2023-04-18T05:03:21.522Z,81.7015
2023-04-18T05:04:23.257Z,81.7004
2023-04-18T05:05:24.676Z,81.9505
2023-04-18T05:06:26.349Z,81.6272
2023-04-18T05:07:27.995Z,81.8531
2023-04-18T05:08:29.594Z,81.8965
2023-04-18T05:09:31.318Z,81.8112
2023-04-18T05:10:32.901Z,81.8420
2023-04-18T05:11:34.612Z,81.7844
2023-04-18T05:12:36.191Z,81.9814
2023-04-18T05:13:37.833Z,81.7175
2023-04-18T05:14:39.524Z,81.7252
2023-04-18T05:15:41.269Z,81.6413
2023-04-18T05:16:42.799Z,81.3136
2023-04-18T05:17:44.468Z,81.2086
2023-04-18T05:18:46.059Z,81.0823
2023-04-18T05:19:47.750Z,81.0661
2023-04-18T05:20:49.326Z,81.0760
2023-04-18T05:21:51.137Z,80.9725
2023-04-18T05:22:52.589Z,80.8723
2023-04-18T05:23:54.278Z,81.1713
2023-04-18T05:24:55.912Z,80.9266
2023-04-18T05:25:57.564Z,80.8128
2023-04-18T05:26:59.176Z,80.8004
2023-04-18T05:28:00.840Z,80.8488
2023-04-18T05:29:02.455Z,81.0753
2023-04-18T05:30:04.179Z,81.1404
2023-04-18T05:31:05.769Z,81.1194
2023-04-18T05:32:07.398Z,81.2225
2023-04-18T05:33:09.026Z,81.3177
2023-04-18T05:34:10.664Z,81.1563
2023-04-18T05:35:12.386Z,81.3057
2023-04-18T05:36:13.999Z,81.2732
2023-04-18T05:37:15.652Z,81.3071
2023-04-18T05:38:17.279Z,81.1094
2023-04-18T05:39:18.957Z,81.0323
2023-04-18T05:40:20.601Z,81.1438
2023-04-18T05:41:22.224Z,81.2902
2023-04-18T05:42:23.886Z,81.0569
2023-04-18T05:43:25.514Z,81.1084
2023-04-18T05:44:27.161Z,80.9141
2023-04-18T05:45:28.929Z,80.8725
2023-04-18T05:46:31.199Z,80.9008
2023-04-18T05:47:32.210Z,80.9154
2023-04-18T05:48:33.821Z,80.9134
2023-04-18T05:49:35.497Z,80.7841
2023-04-18T05:50:37.171Z,81.0199
2023-04-18T05:51:38.765Z,81.0180
2023-04-18T05:52:40.393Z,80.9121
2023-04-18T05:53:42.060Z,81.0355
2023-04-18T05:54:43.763Z,80.9576
2023-04-18T05:55:45.408Z,80.8083
2023-04-18T05:56:47.034Z,80.8518
2023-04-18T05:57:48.624Z,80.8479
2023-04-18T05:58:50.274Z,80.7937
2023-04-18T05:59:51.907Z,80.9146
2023-04-18T06:00:53.630Z,80.9931
2023-04-18T06:01:55.274Z,81.1346
2023-04-18T06:02:57.056Z,81.1673
2023-04-18T06:03:58.640Z,81.0911
2023-04-18T06:05:00.436Z,80.9686
2023-04-18T06:06:01.972Z,81.0805
2023-04-18T06:07:03.440Z,81.0336
2023-04-18T06:08:05.098Z,81.0137
2023-04-18T06:09:06.739Z,80.9824
2023-04-18T06:10:08.384Z,80.8817
2023-04-18T06:11:10.149Z,80.8711
2023-04-18T06:12:11.772Z,80.7990
2023-04-18T06:13:13.312Z,80.7963
2023-04-18T06:14:15.483Z,80.8523
2023-04-18T06:15:16.582Z,80.9477
2023-04-18T06:16:18.338Z,80.9377
2023-04-18T06:17:19.834Z,80.8421
2023-04-18T06:18:21.506Z,80.8903
2023-04-18T06:19:23.193Z,80.8212
2023-04-18T06:20:24.781Z,80.8425
2023-04-18T06:21:26.502Z,80.9513
2023-04-18T06:22:28.051Z,80.9851
2023-04-18T06:23:29.919Z,80.8741
2023-04-18T06:24:31.402Z,80.7356
2023-04-18T06:25:33.020Z,80.8110
2023-04-18T06:26:34.771Z,80.9015
2023-04-18T06:27:36.305Z,80.7684
2023-04-18T06:28:37.973Z,80.7088
2023-04-18T06:29:39.588Z,80.7132
2023-04-18T06:30:41.237Z,80.6584
2023-04-18T06:31:42.998Z,80.5857
2023-04-18T06:32:44.557Z,80.5214
2023-04-18T06:33:46.209Z,80.5647
2023-04-18T06:34:47.779Z,80.5276
2023-04-18T06:35:49.475Z,80.6024
2023-04-18T06:36:51.208Z,80.5590
2023-04-18T06:37:52.628Z,80.5592
2023-04-18T06:38:54.315Z,80.6209
2023-04-18T06:39:55.944Z,80.5947
2023-04-18T06:40:57.570Z,80.6358
2023-04-18T06:41:59.247Z,80.7699
2023-04-18T06:43:00.853Z,80.9344
2023-04-18T06:44:04.464Z,80.9238
2023-04-18T06:45:04.126Z,80.9245
2023-04-18T06:46:05.867Z,80.9148
2023-04-18T06:47:07.428Z,80.9653
2023-04-18T06:48:09.166Z,80.9889
2023-04-18T06:49:10.724Z,81.1151
2023-04-18T06:50:12.338Z,81.0671
2023-04-18T06:51:13.960Z,81.2157
2023-04-18T06:52:15.660Z,81.0070
2023-04-18T06:53:17.265Z,80.9032
2023-04-18T06:54:18.907Z,80.9245
2023-04-18T06:55:20.530Z,80.9888
2023-04-18T06:56:22.184Z,81.0157
2023-04-18T06:57:23.847Z,81.0086
2023-04-18T06:58:25.456Z,80.9499
2023-04-18T06:59:27.143Z,81.1803
2023-04-18T07:00:28.857Z,81.2376
2023-04-18T07:01:30.461Z,81.3686
2023-04-18T07:02:32.168Z,81.3488
2023-04-18T07:03:33.800Z,81.4946
2023-04-18T07:04:35.338Z,81.5623
2023-04-18T07:05:36.972Z,81.7091
2023-04-18T07:06:38.605Z,81.6535
2023-04-18T07:07:40.298Z,81.5869
2023-04-18T07:08:41.917Z,81.6844
2023-04-18T07:09:43.534Z,81.8172
2023-04-18T07:10:45.152Z,81.7083
2023-04-18T07:11:46.835Z,81.5333
2023-04-18T07:12:48.521Z,81.3210
2023-04-18T07:13:50.132Z,81.1677
2023-04-18T07:14:51.729Z,81.2014
2023-04-18T07:15:53.407Z,81.1522
2023-04-18T07:16:55.052Z,81.1754
2023-04-18T07:17:56.742Z,81.2116
2023-04-18T07:18:58.318Z,81.2414
2023-04-18T07:19:59.945Z,81.1710
2023-04-18T07:21:01.572Z,81.3156
2023-04-18T07:22:03.215Z,81.3104
2023-04-18T07:23:04.882Z,81.3233
2023-04-18T07:24:06.541Z,81.4970
2023-04-18T07:25:08.163Z,81.5390
2023-04-18T07:26:09.793Z,81.4882
2023-04-18T07:27:11.478Z,81.5320
2023-04-18T07:28:13.147Z,81.3514
2023-04-18T07:29:14.768Z,81.2403
2023-04-18T07:30:16.357Z,81.3590
2023-04-18T07:31:18.064Z,81.2349
2023-04-18T07:32:19.681Z,81.0970
2023-04-18T07:33:21.348Z,80.9844
2023-04-18T07:34:23.008Z,80.7107
2023-04-18T07:35:24.553Z,80.9071
2023-04-18T07:36:26.317Z,80.7480
2023-04-18T07:37:27.931Z,80.8687
2023-04-18T07:38:29.576Z,80.9821
2023-04-18T07:39:31.169Z,80.8600
2023-04-18T07:40:32.781Z,80.6970
2023-04-18T07:41:34.446Z,80.5545
2023-04-18T07:42:36.072Z,80.5503
2023-04-18T07:43:37.774Z,80.6239
2023-04-18T07:44:39.328Z,80.5670
2023-04-18T07:45:41.032Z,80.5044
2023-04-18T07:46:42.736Z,80.6232
2023-04-18T07:47:44.340Z,80.5496
2023-04-18T07:48:45.946Z,80.5929
2023-04-18T07:49:47.555Z,80.5607
2023-04-18T07:50:49.207Z,80.5449
2023-04-18T07:51:50.856Z,80.3116
2023-04-18T07:52:52.472Z,80.0466
2023-04-18T07:53:54.158Z,80.0344
2023-04-18T07:54:55.772Z,79.8310
2023-04-18T07:55:57.389Z,79.8779
2023-04-18T07:56:59.021Z,79.6759
2023-04-18T07:58:00.664Z,79.8459
2023-04-18T07:59:02.385Z,79.2340
2023-04-18T08:00:03.950Z,79.3672
2023-04-18T08:01:05.602Z,79.5486
2023-04-18T08:02:07.284Z,79.6520
2023-04-18T08:03:09.036Z,79.6326
2023-04-18T08:04:10.722Z,79.9354
2023-04-18T08:05:12.234Z,79.6327
2023-04-18T08:06:13.809Z,78.8533
2023-04-18T08:07:15.414Z,79.0171
2023-04-18T08:08:17.115Z,78.8623
2023-04-18T08:09:18.683Z,79.0538
2023-04-18T08:10:21.357Z,79.2307
2023-04-18T08:11:21.978Z,78.5412
2023-04-18T08:12:23.582Z,78.3424
2023-04-18T08:13:25.250Z,79.0246
2023-04-18T08:14:26.856Z,78.9065
2023-04-18T08:15:28.509Z,77.8276
2023-04-18T08:16:30.197Z,77.9777
2023-04-18T08:17:31.835Z,77.8160
2023-04-18T08:18:33.452Z,77.6622
2023-04-18T08:19:35.045Z,76.6099
2023-04-18T08:20:36.703Z,77.0227
2023-04-18T08:21:38.298Z,77.0534
2023-04-18T08:22:53.830Z,77.4320
2023-04-18T08:23:41.638Z,76.2685
2023-04-18T08:25:01.052Z,75.7755
2023-04-18T08:25:44.818Z,76.1375
2023-04-18T08:26:46.524Z,76.4922
2023-04-18T08:27:48.147Z,76.5910
2023-04-18T08:28:49.773Z,76.7269
2023-04-18T08:29:51.396Z,76.6136
2023-04-18T08:30:53.053Z,76.8557
2023-04-18T08:31:54.690Z,77.4265
2023-04-18T08:32:56.301Z,77.4110
2023-04-18T08:33:57.936Z,77.3046
2023-04-18T08:34:59.570Z,76.8363
2023-04-18T08:36:01.235Z,76.4132
2023-04-18T08:37:02.827Z,76.2113
2023-04-18T08:38:04.452Z,76.3793
2023-04-18T08:39:06.167Z,76.7455
2023-04-18T08:40:07.783Z,77.0356
2023-04-18T08:41:09.376Z,77.3026
2023-04-18T08:42:11.049Z,77.1973
2023-04-18T08:43:12.657Z,77.3046
2023-04-18T08:44:14.552Z,77.4458
2023-04-18T08:45:15.946Z,77.1061
2023-04-18T08:46:17.619Z,77.2945
2023-04-18T08:47:19.203Z,77.1196
2023-04-18T08:48:20.833Z,77.1103
2023-04-18T08:49:22.499Z,77.3551
2023-04-18T08:50:24.181Z,76.9449
2023-04-18T08:51:25.753Z,77.3104
2023-04-18T08:52:27.410Z,77.3088
2023-04-18T08:53:28.998Z,76.8239
2023-04-18T08:54:30.708Z,75.7567
2023-04-18T08:55:32.289Z,75.8662
2023-04-18T08:56:34.038Z,75.6627
2023-04-18T08:57:35.585Z,75.2966
2023-04-18T08:58:37.322Z,75.3164
2023-04-18T08:59:39.074Z,74.9405
2023-04-18T09:00:40.550Z,75.6980
2023-04-18T09:01:42.245Z,76.3095
2023-04-18T09:02:44.270Z,76.1310
2023-04-18T09:03:45.465Z,75.7495
2023-04-18T09:04:47.128Z,75.5558
2023-04-18T09:05:48.735Z,75.6620
2023-04-18T09:06:50.369Z,75.7918
2023-04-18T09:07:52.042Z,75.9722
2023-04-18T09:08:53.644Z,75.1919
2023-04-18T09:09:55.286Z,74.7949
2023-04-18T09:10:56.889Z,74.6498
2023-04-18T09:11:58.527Z,74.8951
2023-04-18T09:13:00.134Z,74.6583
2023-04-18T09:14:01.776Z,74.4328
2023-04-18T09:15:03.442Z,74.5425
2023-04-18T09:16:05.065Z,74.6029
2023-04-18T09:17:06.878Z,74.7670
2023-04-18T09:18:08.396Z,74.7954
2023-04-18T09:19:09.941Z,74.8004
2023-04-18T09:20:11.627Z,75.2523
2023-04-18T09:21:13.203Z,75.3748
2023-04-18T09:22:14.852Z,75.4758
2023-04-18T09:23:16.483Z,75.0048
2023-04-18T09:24:18.191Z,75.1772
2023-04-18T09:25:19.791Z,75.4238
2023-04-18T09:26:21.277Z,74.8730
2023-04-18T09:27:22.964Z,74.0931
2023-04-18T09:28:24.576Z,74.2099
2023-04-18T09:29:26.224Z,74.2567
2023-04-18T09:30:27.912Z,74.6252
2023-04-18T09:31:29.503Z,74.8223
2023-04-18T09:32:31.171Z,74.6415
2023-04-18T09:33:32.772Z,75.0057
2023-04-18T09:34:34.376Z,74.2781
2023-04-18T09:35:36.049Z,73.3893
2023-04-18T09:36:37.741Z,73.1816
2023-04-18T09:37:39.341Z,73.7060
2023-04-18T09:38:41.204Z,73.7849
2023-04-18T09:39:42.633Z,73.9308
2023-04-18T09:40:44.459Z,74.0417
2023-04-18T09:41:45.905Z,73.9936
2023-04-18T09:42:47.499Z,74.0566
2023-04-18T09:43:49.194Z,74.0132
2023-04-18T09:44:50.729Z,74.0992
2023-04-18T09:45:52.416Z,73.3529
2023-04-18T09:46:54.013Z,73.6176
2023-04-18T09:47:55.695Z,73.2932
2023-04-18T09:48:57.264Z,74.0279
2023-04-18T09:49:58.896Z,74.3051
2023-04-18T09:51:00.568Z,74.7262
2023-04-18T09:52:02.146Z,74.4962
2023-04-18T09:53:03.832Z,74.6214
2023-04-18T09:54:05.442Z,74.0755
2023-04-18T09:55:07.061Z,74.2098
2023-04-18T09:56:08.737Z,74.2040
2023-04-18T09:57:10.340Z,74.2569
2023-04-18T09:58:11.946Z,74.2968
2023-04-18T09:59:13.788Z,74.3340
2023-04-18T10:00:15.235Z,73.8678
2023-04-18T10:01:16.920Z,74.0969
2023-04-18T10:02:19.353Z,73.3619
2023-04-18T10:03:20.326Z,73.4107
2023-04-18T10:04:21.958Z,73.7815
2023-04-18T10:05:23.514Z,74.3255
2023-04-18T10:06:25.211Z,73.1589
2023-04-18T10:07:26.673Z,72.6979
2023-04-18T10:08:28.293Z,72.4471
2023-04-18T10:09:29.948Z,73.0388
2023-04-18T10:10:31.578Z,73.0757
2023-04-18T10:11:33.231Z,72.3815
2023-04-18T10:12:34.852Z,72.6871
2023-04-18T10:13:36.490Z,73.0870
2023-04-18T10:14:38.111Z,73.2816
2023-04-18T10:15:40.749Z,73.4336
2023-04-18T10:16:41.499Z,72.6928
2023-04-18T10:17:56.012Z,72.0799
2023-04-18T10:18:44.706Z,72.8149
2023-04-18T10:19:46.287Z,72.2647
2023-04-18T10:20:47.955Z,72.5083
2023-04-18T10:21:49.607Z,72.6934
2023-04-18T10:22:51.252Z,72.1344
2023-04-18T10:23:52.880Z,71.2244
2023-04-18T10:24:54.540Z,71.9743
2023-04-18T10:25:56.148Z,72.2717
2023-04-18T10:26:57.827Z,72.3284
2023-04-18T10:27:59.407Z,72.5442
2023-04-18T10:29:01.056Z,72.8832
2023-04-18T10:30:02.688Z,72.9745
2023-04-18T10:31:04.412Z,73.1257
2023-04-18T10:32:06.012Z,73.9378
2023-04-18T10:33:10.592Z,73.9523
2023-04-18T10:34:09.251Z,73.5633
2023-04-18T10:35:10.912Z,74.2016
2023-04-18T10:36:12.537Z,73.8585
2023-04-18T10:37:14.218Z,73.7910
2023-04-18T10:38:15.823Z,73.6859
2023-04-18T10:39:17.493Z,73.8180
2023-04-18T10:40:19.103Z,73.4904
2023-04-18T10:41:20.752Z,73.4855
2023-04-18T10:42:22.561Z,74.0288
2023-04-18T10:43:24.118Z,73.2543
2023-04-18T10:44:25.748Z,73.1630
2023-04-18T10:45:27.387Z,73.3377
2023-04-18T10:46:32.458Z,73.2074
2023-04-18T10:47:30.860Z,73.3614
2023-04-18T10:48:32.329Z,73.4299
2023-04-18T10:49:33.959Z,73.1195
2023-04-18T10:50:35.615Z,72.2515
2023-04-18T10:51:37.321Z,72.6818
2023-04-18T10:52:38.976Z,73.0436
2023-04-18T10:53:40.559Z,73.1931
2023-04-18T10:54:42.167Z,73.1182
2023-04-18T10:55:43.806Z,73.6261
2023-04-18T10:56:45.509Z,73.3944
2023-04-18T10:57:47.299Z,73.1306
2023-04-18T10:58:48.791Z,73.1325
2023-04-18T10:59:50.442Z,73.0113
2023-04-18T11:00:52.084Z,72.3674
2023-04-18T11:01:53.783Z,71.7617
2023-04-18T11:02:55.489Z,72.1833
2023-04-18T11:03:57.170Z,72.0530
2023-04-18T11:04:58.597Z,72.0454
2023-04-18T11:06:00.245Z,71.3193
2023-04-18T11:07:01.889Z,72.1749
2023-04-18T11:08:03.669Z,71.0080
2023-04-18T11:09:05.139Z,70.5645
2023-04-18T11:10:06.806Z,70.9499
2023-04-18T11:11:08.457Z,71.1128
2023-04-18T11:12:10.069Z,71.2126
2023-04-18T11:13:11.735Z,70.9140
2023-04-18T11:14:13.523Z,71.2728
2023-04-18T11:15:14.984Z,71.2305
2023-04-18T11:16:16.674Z,70.7594
2023-04-18T11:17:18.289Z,70.6570
2023-04-18T11:18:19.960Z,70.8905
2023-04-18T11:19:21.528Z,70.5261
2023-04-18T11:20:23.095Z,70.2007
2023-04-18T11:21:24.757Z,69.8601
2023-04-18T11:22:26.360Z,69.9686
2023-04-18T11:23:28.100Z,71.1912
2023-04-18T11:24:29.659Z,70.1660
2023-04-18T11:25:31.302Z,70.3810
2023-04-18T11:26:32.940Z,70.2315
2023-04-18T11:27:34.572Z,70.5089
2023-04-18T11:28:36.260Z,70.0803
2023-04-18T11:29:37.877Z,69.6796
2023-04-18T11:30:39.528Z,70.1701
2023-04-18T11:31:41.299Z,70.9432
2023-04-18T11:32:42.867Z,71.0446
2023-04-18T11:33:44.457Z,71.0481
2023-04-18T11:34:46.067Z,70.9969
2023-04-18T11:35:47.727Z,69.9359
2023-04-18T11:36:49.320Z,70.1043
2023-04-18T11:37:50.967Z,70.3821
2023-04-18T11:38:52.651Z,70.4315
2023-04-18T11:39:54.291Z,70.2922
2023-04-18T11:40:56.045Z,70.1914
2023-04-18T11:41:57.556Z,70.7219
2023-04-18T11:42:59.189Z,71.0542
2023-04-18T11:44:00.844Z,71.2542
2023-04-18T11:45:02.456Z,71.0850
2023-04-18T11:46:04.129Z,69.8051
2023-04-18T11:47:05.761Z,69.8881
2023-04-18T11:48:07.405Z,69.3538
2023-04-18T11:49:09.069Z,69.1170
2023-04-18T11:50:10.676Z,69.2574
2023-04-18T11:51:12.320Z,70.0032
2023-04-18T11:52:13.927Z,70.1471
2023-04-18T11:53:15.575Z,68.6657
2023-04-18T11:54:17.237Z,68.7034
2023-04-18T11:55:18.859Z,69.1522
2023-04-18T11:56:20.493Z,68.8931
2023-04-18T11:57:22.130Z,68.5901
2023-04-18T11:58:23.922Z,67.7326
2023-04-18T11:59:25.581Z,67.8472
2023-04-18T12:00:27.065Z,68.3358
2023-04-18T12:01:28.749Z,68.7322
2023-04-18T12:02:30.392Z,68.5833
2023-04-18T12:03:32.128Z,68.4690
2023-04-18T12:04:33.801Z,68.0433
2023-04-18T12:05:35.397Z,67.5647
2023-04-18T12:06:36.900Z,67.0326
2023-04-18T12:07:38.539Z,65.3866
2023-04-18T12:08:40.192Z,65.8137
2023-04-18T12:09:42.679Z,66.1623
2023-04-18T12:10:43.461Z,65.3684
2023-04-18T12:11:45.104Z,64.4693
2023-04-18T12:12:46.974Z,64.7384
2023-04-18T12:13:48.371Z,64.6214
2023-04-18T12:14:50.201Z,64.7325
2023-04-18T12:15:51.721Z,64.6161
2023-04-18T12:16:53.286Z,64.4029
2023-04-18T12:17:54.923Z,64.4484
2023-04-18T12:18:56.553Z,65.1153
2023-04-18T12:19:58.231Z,65.3904
2023-04-18T12:20:59.827Z,65.2812
2023-04-18T12:22:01.522Z,64.4285
2023-04-18T12:23:03.152Z,64.9300
2023-04-18T12:24:04.785Z,64.0350
2023-04-18T12:25:06.429Z,64.2321